This is the latest recevied weather packets stored in our database for station/object KE4LOJ. If no packets are shown the sender has not sent any weather packets the latest 10 day(s).
| Time | Temp. | Humidity | Pressure | Rain* | Wind** | Luminosity | Snow |
|---|---|---|---|---|---|---|---|
| 1777404009 | 28.89° C | 62% | 1019.9 hPa | 0 mm | - | 793 W/m² | - |
| 1777403704 | 28.89° C | 59% | 1020.2 hPa | 0 mm | - | 286 W/m² | - |
| 1777403402 | 29.44° C | 59% | 1020 hPa | 0 mm | - | 871 W/m² | - |
| 1777403097 | 28.89° C | 60% | 1020.1 hPa | 0 mm | - | 808 W/m² | - |
| 1777402794 | 30° C | 57% | 1020.1 hPa | 0 mm | - | 577 W/m² | - |
| 1777402490 | 30° C | 56% | 1019.9 hPa | 0 mm | - | 832 W/m² | - |
| 1777402188 | 29.44° C | 59% | 1020 hPa | 0 mm | - | 833 W/m² | - |
| 1777401888 | 30° C | 57% | 1019.9 hPa | 0 mm | - | 860 W/m² | - |
| 1777401587 | 30° C | 55% | 1020.1 hPa | 0 mm | - | 880 W/m² | - |
| 1777401284 | 29.44° C | 58% | 1020.1 hPa | 0 mm | - | 855 W/m² | - |
| 1777400979 | 29.44° C | 57% | 1020 hPa | 0 mm | - | 854 W/m² | - |
| 1777400675 | 29.44° C | 56% | 1020 hPa | 0 mm | - | 862 W/m² | - |
| 1777400373 | 28.89° C | 56% | 1019.9 hPa | 0 mm | - | 905 W/m² | - |
| 1777400068 | 28.89° C | 58% | 1020 hPa | 0 mm | - | 179 W/m² | - |
| 1777399766 | 28.89° C | 58% | 1019.8 hPa | 0 mm | - | 967 W/m² | - |
| 1777399462 | 28.89° C | 59% | 1019.8 hPa | 0 mm | - | 903 W/m² | - |
| 1777399160 | 28.89° C | 60% | 1020 hPa | 0 mm | - | 876 W/m² | - |
| 1777398857 | 28.33° C | 61% | 1020.1 hPa | 0 mm | - | 909 W/m² | - |
| 1777398554 | 28.89° C | 60% | 1019.9 hPa | 0 mm | - | 265 W/m² | - |
| 1777398250 | 28.89° C | 60% | 1019.8 hPa | 0 mm | - | 960 W/m² | - |
| 1777397949 | 28.89° C | 61% | 1020 hPa | 0 mm | - | 303 W/m² | - |
| 1777397643 | 28.33° C | 61% | 1020.1 hPa | 0 mm | - | 940 W/m² | - |
| 1777397340 | 27.78° C | 63% | 1020.1 hPa | 0 mm | - | 216 W/m² | - |
| 1777397036 | 27.78° C | 64% | 1020 hPa | 0 mm | - | 182 W/m² | - |
| 1777396734 | 27.78° C | 64% | 1020.1 hPa | 0 mm | - | 209 W/m² | - |
* Rain latest hour (hover to see other rain measurements)
** Current wind speed in m/s (hover to see current wind gust speed)